sensor_id;sensor_type;location;lat;lon;timestamp;P1;durP1;ratioP1;P2;durP2;ratioP2
52668;SDS011;74205;52.786;6.892;2024-02-16T00:01:52;8.23;;;5.20;;
52668;SDS011;74205;52.786;6.892;2024-02-16T00:05:12;7.05;;;4.70;;
52668;SDS011;74205;52.786;6.892;2024-02-16T00:08:33;10.95;;;4.97;;
52668;SDS011;74205;52.786;6.892;2024-02-16T00:11:54;9.10;;;6.25;;
52668;SDS011;74205;52.786;6.892;2024-02-16T00:15:15;7.70;;;4.82;;
52668;SDS011;74205;52.786;6.892;2024-02-16T00:18:36;10.95;;;4.95;;
52668;SDS011;74205;52.786;6.892;2024-02-16T00:21:56;8.75;;;5.10;;
52668;SDS011;74205;52.786;6.892;2024-02-16T00:25:17;11.30;;;4.80;;
52668;SDS011;74205;52.786;6.892;2024-02-16T00:28:38;8.07;;;4.55;;
52668;SDS011;74205;52.786;6.892;2024-02-16T00:31:58;10.57;;;5.57;;
52668;SDS011;74205;52.786;6.892;2024-02-16T00:35:19;7.07;;;4.72;;
52668;SDS011;74205;52.786;6.892;2024-02-16T00:38:39;7.05;;;4.90;;
52668;SDS011;74205;52.786;6.892;2024-02-16T00:42:00;8.82;;;5.57;;
52668;SDS011;74205;52.786;6.892;2024-02-16T00:45:21;8.55;;;5.38;;
52668;SDS011;74205;52.786;6.892;2024-02-16T00:48:41;8.75;;;5.15;;
52668;SDS011;74205;52.786;6.892;2024-02-16T00:52:02;10.93;;;5.55;;
52668;SDS011;74205;52.786;6.892;2024-02-16T00:55:23;8.27;;;4.47;;
52668;SDS011;74205;52.786;6.892;2024-02-16T00:58:44;6.57;;;4.00;;
52668;SDS011;74205;52.786;6.892;2024-02-16T01:02:05;8.25;;;4.82;;
52668;SDS011;74205;52.786;6.892;2024-02-16T01:05:26;6.50;;;4.60;;
52668;SDS011;74205;52.786;6.892;2024-02-16T01:08:47;7.18;;;4.60;;
52668;SDS011;74205;52.786;6.892;2024-02-16T01:12:08;7.68;;;4.55;;
52668;SDS011;74205;52.786;6.892;2024-02-16T01:15:28;7.78;;;4.80;;
52668;SDS011;74205;52.786;6.892;2024-02-16T01:18:49;9.55;;;6.28;;
52668;SDS011;74205;52.786;6.892;2024-02-16T01:22:09;7.10;;;4.57;;
52668;SDS011;74205;52.786;6.892;2024-02-16T01:25:30;8.05;;;4.45;;
52668;SDS011;74205;52.786;6.892;2024-02-16T01:28:52;6.45;;;5.00;;
52668;SDS011;74205;52.786;6.892;2024-02-16T01:32:12;8.48;;;5.47;;
52668;SDS011;74205;52.786;6.892;2024-02-16T01:35:34;8.40;;;3.95;;
52668;SDS011;74205;52.786;6.892;2024-02-16T01:38:55;7.45;;;4.35;;
52668;SDS011;74205;52.786;6.892;2024-02-16T01:42:15;8.57;;;5.05;;
52668;SDS011;74205;52.786;6.892;2024-02-16T01:45:36;11.95;;;5.05;;
52668;SDS011;74205;52.786;6.892;2024-02-16T01:48:56;7.75;;;4.97;;
52668;SDS011;74205;52.786;6.892;2024-02-16T01:52:17;8.43;;;5.20;;
52668;SDS011;74205;52.786;6.892;2024-02-16T01:55:38;6.38;;;4.90;;
52668;SDS011;74205;52.786;6.892;2024-02-16T01:58:59;6.78;;;4.28;;
52668;SDS011;74205;52.786;6.892;2024-02-16T02:02:19;6.45;;;4.43;;
52668;SDS011;74205;52.786;6.892;2024-02-16T02:05:46;7.22;;;4.60;;
52668;SDS011;74205;52.786;6.892;2024-02-16T02:09:07;6.47;;;4.28;;
52668;SDS011;74205;52.786;6.892;2024-02-16T02:12:29;6.45;;;4.32;;
52668;SDS011;74205;52.786;6.892;2024-02-16T02:15:50;7.47;;;4.35;;
52668;SDS011;74205;52.786;6.892;2024-02-16T02:19:10;6.03;;;4.05;;
52668;SDS011;74205;52.786;6.892;2024-02-16T02:22:31;9.05;;;4.25;;
52668;SDS011;74205;52.786;6.892;2024-02-16T02:25:51;5.57;;;4.15;;
52668;SDS011;74205;52.786;6.892;2024-02-16T02:29:13;12.45;;;4.97;;
52668;SDS011;74205;52.786;6.892;2024-02-16T02:32:33;10.43;;;4.50;;
52668;SDS011;74205;52.786;6.892;2024-02-16T02:35:54;6.68;;;4.07;;
52668;SDS011;74205;52.786;6.892;2024-02-16T02:39:15;6.75;;;4.03;;
52668;SDS011;74205;52.786;6.892;2024-02-16T02:42:35;6.32;;;3.97;;
52668;SDS011;74205;52.786;6.892;2024-02-16T02:45:56;7.32;;;4.65;;
52668;SDS011;74205;52.786;6.892;2024-02-16T02:49:16;7.43;;;5.00;;
52668;SDS011;74205;52.786;6.892;2024-02-16T02:52:37;7.50;;;5.13;;
52668;SDS011;74205;52.786;6.892;2024-02-16T02:55:58;6.78;;;4.72;;
52668;SDS011;74205;52.786;6.892;2024-02-16T02:59:18;9.05;;;4.97;;
52668;SDS011;74205;52.786;6.892;2024-02-16T03:02:39;6.00;;;5.05;;
52668;SDS011;74205;52.786;6.892;2024-02-16T03:06:00;6.75;;;4.40;;
52668;SDS011;74205;52.786;6.892;2024-02-16T03:09:21;7.03;;;3.95;;
52668;SDS011;74205;52.786;6.892;2024-02-16T03:12:42;7.85;;;4.38;;
52668;SDS011;74205;52.786;6.892;2024-02-16T03:16:04;6.93;;;4.25;;
52668;SDS011;74205;52.786;6.892;2024-02-16T03:19:24;5.28;;;4.10;;
52668;SDS011;74205;52.786;6.892;2024-02-16T03:22:46;5.70;;;4.20;;
52668;SDS011;74205;52.786;6.892;2024-02-16T03:26:13;8.25;;;4.78;;
52668;SDS011;74205;52.786;6.892;2024-02-16T03:29:38;6.43;;;4.03;;
52668;SDS011;74205;52.786;6.892;2024-02-16T03:32:58;5.35;;;3.80;;
52668;SDS011;74205;52.786;6.892;2024-02-16T03:36:19;9.35;;;4.25;;
52668;SDS011;74205;52.786;6.892;2024-02-16T03:39:40;9.07;;;3.60;;
52668;SDS011;74205;52.786;6.892;2024-02-16T03:43:01;7.68;;;4.35;;
52668;SDS011;74205;52.786;6.892;2024-02-16T03:46:21;9.00;;;3.90;;
52668;SDS011;74205;52.786;6.892;2024-02-16T03:49:42;7.22;;;4.05;;
52668;SDS011;74205;52.786;6.892;2024-02-16T03:53:03;6.47;;;4.05;;
52668;SDS011;74205;52.786;6.892;2024-02-16T03:56:24;5.75;;;4.00;;
52668;SDS011;74205;52.786;6.892;2024-02-16T03:59:45;5.97;;;3.72;;
52668;SDS011;74205;52.786;6.892;2024-02-16T04:03:06;5.28;;;4.00;;
52668;SDS011;74205;52.786;6.892;2024-02-16T04:06:26;7.68;;;3.85;;
52668;SDS011;74205;52.786;6.892;2024-02-16T04:09:47;4.40;;;3.13;;
52668;SDS011;74205;52.786;6.892;2024-02-16T04:13:07;6.25;;;3.95;;
52668;SDS011;74205;52.786;6.892;2024-02-16T04:16:28;5.75;;;3.35;;
52668;SDS011;74205;52.786;6.892;2024-02-16T04:19:48;6.40;;;3.70;;
52668;SDS011;74205;52.786;6.892;2024-02-16T04:23:09;7.85;;;4.35;;
52668;SDS011;74205;52.786;6.892;2024-02-16T04:26:30;5.68;;;3.60;;
52668;SDS011;74205;52.786;6.892;2024-02-16T04:29:50;6.10;;;3.70;;
52668;SDS011;74205;52.786;6.892;2024-02-16T04:33:11;7.28;;;4.35;;
52668;SDS011;74205;52.786;6.892;2024-02-16T04:36:31;5.22;;;3.58;;
52668;SDS011;74205;52.786;6.892;2024-02-16T04:39:52;5.68;;;4.03;;
52668;SDS011;74205;52.786;6.892;2024-02-16T04:43:13;5.88;;;3.63;;
52668;SDS011;74205;52.786;6.892;2024-02-16T04:46:33;5.82;;;3.92;;
52668;SDS011;74205;52.786;6.892;2024-02-16T04:49:54;6.53;;;4.25;;
52668;SDS011;74205;52.786;6.892;2024-02-16T04:53:14;7.50;;;4.63;;
52668;SDS011;74205;52.786;6.892;2024-02-16T04:56:35;5.65;;;4.50;;
52668;SDS011;74205;52.786;6.892;2024-02-16T04:59:56;8.93;;;4.45;;
52668;SDS011;74205;52.786;6.892;2024-02-16T05:03:17;6.40;;;4.78;;
52668;SDS011;74205;52.786;6.892;2024-02-16T05:06:40;6.75;;;4.60;;
52668;SDS011;74205;52.786;6.892;2024-02-16T05:10:01;7.75;;;4.68;;
52668;SDS011;74205;52.786;6.892;2024-02-16T05:13:22;6.97;;;4.18;;
52668;SDS011;74205;52.786;6.892;2024-02-16T05:16:46;7.55;;;4.10;;
52668;SDS011;74205;52.786;6.892;2024-02-16T05:20:10;6.68;;;3.90;;
52668;SDS011;74205;52.786;6.892;2024-02-16T05:23:35;6.88;;;4.18;;
52668;SDS011;74205;52.786;6.892;2024-02-16T05:26:55;9.02;;;4.60;;
52668;SDS011;74205;52.786;6.892;2024-02-16T05:30:16;8.05;;;5.30;;
52668;SDS011;74205;52.786;6.892;2024-02-16T05:33:37;5.50;;;4.18;;
52668;SDS011;74205;52.786;6.892;2024-02-16T05:36:57;5.38;;;3.88;;
52668;SDS011;74205;52.786;6.892;2024-02-16T05:40:18;5.50;;;4.13;;
52668;SDS011;74205;52.786;6.892;2024-02-16T05:47:02;10.05;;;4.47;;
52668;SDS011;74205;52.786;6.892;2024-02-16T05:50:23;8.07;;;4.40;;
52668;SDS011;74205;52.786;6.892;2024-02-16T05:53:44;4.93;;;3.92;;
52668;SDS011;74205;52.786;6.892;2024-02-16T05:57:07;13.27;;;5.10;;
52668;SDS011;74205;52.786;6.892;2024-02-16T06:00:31;9.52;;;4.28;;
52668;SDS011;74205;52.786;6.892;2024-02-16T06:03:54;8.45;;;5.28;;
52668;SDS011;74205;52.786;6.892;2024-02-16T06:07:14;5.78;;;4.20;;
52668;SDS011;74205;52.786;6.892;2024-02-16T06:10:35;7.13;;;5.13;;
52668;SDS011;74205;52.786;6.892;2024-02-16T06:13:56;6.03;;;4.03;;
52668;SDS011;74205;52.786;6.892;2024-02-16T06:17:16;10.20;;;4.80;;
52668;SDS011;74205;52.786;6.892;2024-02-16T06:20:37;9.57;;;4.43;;
52668;SDS011;74205;52.786;6.892;2024-02-16T06:23:57;8.10;;;4.88;;
52668;SDS011;74205;52.786;6.892;2024-02-16T06:27:18;7.82;;;4.88;;
52668;SDS011;74205;52.786;6.892;2024-02-16T06:30:39;8.23;;;4.82;;
52668;SDS011;74205;52.786;6.892;2024-02-16T06:34:00;6.57;;;4.90;;
52668;SDS011;74205;52.786;6.892;2024-02-16T06:37:20;6.03;;;4.57;;
52668;SDS011;74205;52.786;6.892;2024-02-16T06:40:41;7.53;;;3.92;;
52668;SDS011;74205;52.786;6.892;2024-02-16T06:44:02;7.20;;;4.25;;
52668;SDS011;74205;52.786;6.892;2024-02-16T06:47:23;5.57;;;3.97;;
52668;SDS011;74205;52.786;6.892;2024-02-16T06:50:45;6.63;;;4.93;;
52668;SDS011;74205;52.786;6.892;2024-02-16T06:54:06;6.05;;;4.28;;
52668;SDS011;74205;52.786;6.892;2024-02-16T06:57:27;8.05;;;4.20;;
52668;SDS011;74205;52.786;6.892;2024-02-16T07:00:48;6.53;;;4.20;;
52668;SDS011;74205;52.786;6.892;2024-02-16T07:04:08;6.95;;;4.40;;
52668;SDS011;74205;52.786;6.892;2024-02-16T07:07:29;6.75;;;4.38;;
52668;SDS011;74205;52.786;6.892;2024-02-16T07:10:50;11.85;;;4.65;;
52668;SDS011;74205;52.786;6.892;2024-02-16T07:14:12;5.68;;;3.47;;
52668;SDS011;74205;52.786;6.892;2024-02-16T07:17:33;7.75;;;3.92;;
52668;SDS011;74205;52.786;6.892;2024-02-16T07:20:54;9.48;;;4.20;;
52668;SDS011;74205;52.786;6.892;2024-02-16T07:24:15;7.65;;;4.28;;
52668;SDS011;74205;52.786;6.892;2024-02-16T07:27:36;7.30;;;3.90;;
52668;SDS011;74205;52.786;6.892;2024-02-16T07:30:56;9.32;;;4.20;;
52668;SDS011;74205;52.786;6.892;2024-02-16T07:34:17;5.82;;;3.80;;
52668;SDS011;74205;52.786;6.892;2024-02-16T07:37:37;7.70;;;4.50;;
52668;SDS011;74205;52.786;6.892;2024-02-16T07:40:58;7.63;;;4.68;;
52668;SDS011;74205;52.786;6.892;2024-02-16T07:44:19;6.68;;;4.40;;
52668;SDS011;74205;52.786;6.892;2024-02-16T07:47:41;6.90;;;3.90;;
52668;SDS011;74205;52.786;6.892;2024-02-16T07:51:02;8.93;;;4.57;;
52668;SDS011;74205;52.786;6.892;2024-02-16T07:54:23;6.22;;;4.88;;
52668;SDS011;74205;52.786;6.892;2024-02-16T07:57:44;10.00;;;3.80;;
52668;SDS011;74205;52.786;6.892;2024-02-16T08:01:05;9.10;;;3.83;;
52668;SDS011;74205;52.786;6.892;2024-02-16T08:04:26;8.32;;;4.63;;
52668;SDS011;74205;52.786;6.892;2024-02-16T08:07:46;8.18;;;4.40;;
52668;SDS011;74205;52.786;6.892;2024-02-16T08:11:07;8.85;;;4.43;;
52668;SDS011;74205;52.786;6.892;2024-02-16T08:14:28;8.07;;;4.32;;
52668;SDS011;74205;52.786;6.892;2024-02-16T08:17:48;7.00;;;4.13;;
52668;SDS011;74205;52.786;6.892;2024-02-16T08:21:10;6.50;;;4.07;;
52668;SDS011;74205;52.786;6.892;2024-02-16T08:24:31;10.18;;;4.65;;
52668;SDS011;74205;52.786;6.892;2024-02-16T08:27:53;5.88;;;3.97;;
52668;SDS011;74205;52.786;6.892;2024-02-16T08:31:17;14.15;;;4.63;;
52668;SDS011;74205;52.786;6.892;2024-02-16T08:34:38;8.10;;;4.88;;
52668;SDS011;74205;52.786;6.892;2024-02-16T08:37:59;9.07;;;4.32;;
52668;SDS011;74205;52.786;6.892;2024-02-16T08:41:19;15.98;;;4.30;;
52668;SDS011;74205;52.786;6.892;2024-02-16T08:44:41;7.83;;;4.37;;
52668;SDS011;74205;52.786;6.892;2024-02-16T08:48:02;5.50;;;4.10;;
52668;SDS011;74205;52.786;6.892;2024-02-16T08:51:23;5.88;;;4.57;;
52668;SDS011;74205;52.786;6.892;2024-02-16T08:54:44;6.13;;;4.32;;
52668;SDS011;74205;52.786;6.892;2024-02-16T08:58:07;8.65;;;4.13;;
52668;SDS011;74205;52.786;6.892;2024-02-16T09:01:35;6.43;;;4.18;;
52668;SDS011;74205;52.786;6.892;2024-02-16T09:04:57;5.63;;;4.65;;
52668;SDS011;74205;52.786;6.892;2024-02-16T09:08:18;6.45;;;4.53;;
52668;SDS011;74205;52.786;6.892;2024-02-16T09:11:39;8.63;;;4.68;;
52668;SDS011;74205;52.786;6.892;2024-02-16T09:14:59;6.82;;;4.28;;
52668;SDS011;74205;52.786;6.892;2024-02-16T09:18:20;7.38;;;4.63;;
52668;SDS011;74205;52.786;6.892;2024-02-16T09:21:40;8.77;;;4.72;;
52668;SDS011;74205;52.786;6.892;2024-02-16T09:25:01;5.55;;;4.03;;
52668;SDS011;74205;52.786;6.892;2024-02-16T09:28:23;6.18;;;4.03;;
52668;SDS011;74205;52.786;6.892;2024-02-16T09:31:43;6.70;;;4.60;;
52668;SDS011;74205;52.786;6.892;2024-02-16T09:35:04;7.72;;;4.80;;
52668;SDS011;74205;52.786;6.892;2024-02-16T09:38:25;11.73;;;4.85;;
52668;SDS011;74205;52.786;6.892;2024-02-16T09:41:47;7.53;;;4.43;;
52668;SDS011;74205;52.786;6.892;2024-02-16T09:45:10;6.80;;;5.07;;
52668;SDS011;74205;52.786;6.892;2024-02-16T09:48:34;7.13;;;4.40;;
52668;SDS011;74205;52.786;6.892;2024-02-16T09:51:56;7.40;;;4.72;;
52668;SDS011;74205;52.786;6.892;2024-02-16T09:55:22;8.50;;;5.15;;
52668;SDS011;74205;52.786;6.892;2024-02-16T09:58:42;6.00;;;4.50;;
52668;SDS011;74205;52.786;6.892;2024-02-16T10:02:03;7.10;;;4.45;;
52668;SDS011;74205;52.786;6.892;2024-02-16T10:05:24;7.72;;;5.13;;
52668;SDS011;74205;52.786;6.892;2024-02-16T10:08:48;12.20;;;4.40;;
52668;SDS011;74205;52.786;6.892;2024-02-16T10:12:10;7.88;;;4.70;;
52668;SDS011;74205;52.786;6.892;2024-02-16T10:15:37;9.10;;;4.20;;
52668;SDS011;74205;52.786;6.892;2024-02-16T10:19:05;7.60;;;4.55;;
52668;SDS011;74205;52.786;6.892;2024-02-16T10:22:26;7.45;;;4.97;;
52668;SDS011;74205;52.786;6.892;2024-02-16T10:25:48;10.70;;;4.55;;
52668;SDS011;74205;52.786;6.892;2024-02-16T10:29:09;7.20;;;4.70;;
52668;SDS011;74205;52.786;6.892;2024-02-16T10:32:35;8.07;;;4.75;;
52668;SDS011;74205;52.786;6.892;2024-02-16T10:35:57;7.80;;;4.80;;
52668;SDS011;74205;52.786;6.892;2024-02-16T10:39:18;6.50;;;4.65;;
52668;SDS011;74205;52.786;6.892;2024-02-16T10:42:40;6.93;;;4.63;;
52668;SDS011;74205;52.786;6.892;2024-02-16T10:46:02;8.10;;;5.78;;
52668;SDS011;74205;52.786;6.892;2024-02-16T10:49:23;9.48;;;5.20;;
52668;SDS011;74205;52.786;6.892;2024-02-16T10:52:44;10.73;;;5.57;;
52668;SDS011;74205;52.786;6.892;2024-02-16T10:56:07;9.48;;;4.97;;
52668;SDS011;74205;52.786;6.892;2024-02-16T10:59:37;7.43;;;5.75;;
52668;SDS011;74205;52.786;6.892;2024-02-16T11:03:03;9.73;;;5.38;;
52668;SDS011;74205;52.786;6.892;2024-02-16T11:06:25;8.25;;;5.28;;
52668;SDS011;74205;52.786;6.892;2024-02-16T11:09:45;9.25;;;5.80;;
52668;SDS011;74205;52.786;6.892;2024-02-16T11:13:06;8.15;;;5.28;;
52668;SDS011;74205;52.786;6.892;2024-02-16T11:16:28;9.25;;;5.65;;
52668;SDS011;74205;52.786;6.892;2024-02-16T11:19:50;10.75;;;6.40;;
52668;SDS011;74205;52.786;6.892;2024-02-16T11:23:11;10.95;;;5.35;;
52668;SDS011;74205;52.786;6.892;2024-02-16T11:26:44;9.55;;;6.38;;
52668;SDS011;74205;52.786;6.892;2024-02-16T11:30:05;8.65;;;6.78;;
52668;SDS011;74205;52.786;6.892;2024-02-16T11:33:30;8.60;;;6.28;;
52668;SDS011;74205;52.786;6.892;2024-02-16T11:37:01;6.97;;;5.72;;
52668;SDS011;74205;52.786;6.892;2024-02-16T11:40:22;8.23;;;5.68;;
52668;SDS011;74205;52.786;6.892;2024-02-16T11:43:42;8.90;;;5.95;;
52668;SDS011;74205;52.786;6.892;2024-02-16T11:47:03;8.20;;;6.93;;
52668;SDS011;74205;52.786;6.892;2024-02-16T11:50:26;8.90;;;7.40;;
52668;SDS011;74205;52.786;6.892;2024-02-16T11:53:54;10.23;;;8.13;;
52668;SDS011;74205;52.786;6.892;2024-02-16T11:57:16;11.27;;;8.95;;
52668;SDS011;74205;52.786;6.892;2024-02-16T12:00:39;14.30;;;9.37;;
52668;SDS011;74205;52.786;6.892;2024-02-16T12:04:01;11.10;;;9.68;;
52668;SDS011;74205;52.786;6.892;2024-02-16T12:07:21;15.85;;;11.63;;
52668;SDS011;74205;52.786;6.892;2024-02-16T12:10:42;12.15;;;9.75;;
52668;SDS011;74205;52.786;6.892;2024-02-16T12:14:03;14.48;;;12.25;;
52668;SDS011;74205;52.786;6.892;2024-02-16T12:17:24;16.83;;;12.15;;
52668;SDS011;74205;52.786;6.892;2024-02-16T12:20:44;18.10;;;13.55;;
52668;SDS011;74205;52.786;6.892;2024-02-16T12:24:08;18.75;;;12.60;;
52668;SDS011;74205;52.786;6.892;2024-02-16T12:27:28;15.43;;;12.95;;
52668;SDS011;74205;52.786;6.892;2024-02-16T12:30:49;19.25;;;13.10;;
52668;SDS011;74205;52.786;6.892;2024-02-16T12:34:10;16.90;;;12.95;;
52668;SDS011;74205;52.786;6.892;2024-02-16T12:37:31;15.40;;;13.73;;
52668;SDS011;74205;52.786;6.892;2024-02-16T12:40:51;15.13;;;13.52;;
52668;SDS011;74205;52.786;6.892;2024-02-16T12:44:12;18.38;;;14.60;;
52668;SDS011;74205;52.786;6.892;2024-02-16T12:47:33;19.08;;;14.70;;
52668;SDS011;74205;52.786;6.892;2024-02-16T12:50:53;16.60;;;12.88;;
52668;SDS011;74205;52.786;6.892;2024-02-16T12:54:14;14.18;;;12.52;;
52668;SDS011;74205;52.786;6.892;2024-02-16T12:57:38;15.77;;;12.27;;
52668;SDS011;74205;52.786;6.892;2024-02-16T13:00:59;14.93;;;11.90;;
52668;SDS011;74205;52.786;6.892;2024-02-16T13:04:20;13.60;;;12.23;;
52668;SDS011;74205;52.786;6.892;2024-02-16T13:07:41;15.05;;;10.82;;
52668;SDS011;74205;52.786;6.892;2024-02-16T13:11:02;11.50;;;9.27;;
52668;SDS011;74205;52.786;6.892;2024-02-16T13:14:23;10.27;;;9.05;;
52668;SDS011;74205;52.786;6.892;2024-02-16T13:17:44;20.08;;;16.27;;
52668;SDS011;74205;52.786;6.892;2024-02-16T13:21:05;12.75;;;8.70;;
52668;SDS011;74205;52.786;6.892;2024-02-16T13:24:25;10.40;;;8.57;;
52668;SDS011;74205;52.786;6.892;2024-02-16T13:27:46;9.98;;;7.80;;
52668;SDS011;74205;52.786;6.892;2024-02-16T13:31:06;9.73;;;8.00;;
52668;SDS011;74205;52.786;6.892;2024-02-16T13:34:27;7.95;;;6.70;;
52668;SDS011;74205;52.786;6.892;2024-02-16T13:37:49;9.60;;;7.63;;
52668;SDS011;74205;52.786;6.892;2024-02-16T13:41:10;10.73;;;7.77;;
52668;SDS011;74205;52.786;6.892;2024-02-16T13:44:31;10.43;;;6.78;;
52668;SDS011;74205;52.786;6.892;2024-02-16T13:47:52;7.40;;;6.28;;
52668;SDS011;74205;52.786;6.892;2024-02-16T13:51:12;8.25;;;7.07;;
52668;SDS011;74205;52.786;6.892;2024-02-16T13:54:33;6.80;;;6.10;;
52668;SDS011;74205;52.786;6.892;2024-02-16T13:57:55;8.88;;;5.88;;
52668;SDS011;74205;52.786;6.892;2024-02-16T14:01:16;9.32;;;5.82;;
52668;SDS011;74205;52.786;6.892;2024-02-16T14:04:36;6.60;;;5.47;;
52668;SDS011;74205;52.786;6.892;2024-02-16T14:07:57;7.72;;;5.15;;
52668;SDS011;74205;52.786;6.892;2024-02-16T14:11:18;6.13;;;5.07;;
52668;SDS011;74205;52.786;6.892;2024-02-16T14:14:39;5.93;;;4.72;;
52668;SDS011;74205;52.786;6.892;2024-02-16T14:18:00;8.93;;;5.20;;
52668;SDS011;74205;52.786;6.892;2024-02-16T14:21:20;7.80;;;5.80;;
52668;SDS011;74205;52.786;6.892;2024-02-16T14:24:41;11.23;;;5.65;;
52668;SDS011;74205;52.786;6.892;2024-02-16T14:28:02;6.07;;;5.20;;
52668;SDS011;74205;52.786;6.892;2024-02-16T14:31:22;8.18;;;5.50;;
52668;SDS011;74205;52.786;6.892;2024-02-16T14:34:43;5.68;;;4.63;;
52668;SDS011;74205;52.786;6.892;2024-02-16T14:38:04;6.88;;;4.88;;
52668;SDS011;74205;52.786;6.892;2024-02-16T14:41:25;6.05;;;4.68;;
52668;SDS011;74205;52.786;6.892;2024-02-16T14:44:47;6.35;;;4.30;;
52668;SDS011;74205;52.786;6.892;2024-02-16T14:48:08;4.65;;;3.65;;
52668;SDS011;74205;52.786;6.892;2024-02-16T14:51:30;4.85;;;3.67;;
52668;SDS011;74205;52.786;6.892;2024-02-16T14:54:50;6.72;;;5.60;;
52668;SDS011;74205;52.786;6.892;2024-02-16T14:58:11;5.18;;;4.40;;
52668;SDS011;74205;52.786;6.892;2024-02-16T15:01:31;4.25;;;3.47;;
52668;SDS011;74205;52.786;6.892;2024-02-16T15:04:52;6.03;;;3.67;;
52668;SDS011;74205;52.786;6.892;2024-02-16T15:08:13;3.88;;;3.28;;
52668;SDS011;74205;52.786;6.892;2024-02-16T15:11:34;4.45;;;2.88;;
52668;SDS011;74205;52.786;6.892;2024-02-16T15:14:55;5.00;;;4.35;;
52668;SDS011;74205;52.786;6.892;2024-02-16T15:18:16;8.00;;;5.65;;
52668;SDS011;74205;52.786;6.892;2024-02-16T15:21:36;7.05;;;6.15;;
52668;SDS011;74205;52.786;6.892;2024-02-16T15:24:58;7.47;;;6.72;;
52668;SDS011;74205;52.786;6.892;2024-02-16T15:28:18;6.25;;;5.70;;
52668;SDS011;74205;52.786;6.892;2024-02-16T15:31:39;5.90;;;5.22;;
52668;SDS011;74205;52.786;6.892;2024-02-16T15:35:00;5.95;;;4.50;;
52668;SDS011;74205;52.786;6.892;2024-02-16T15:38:20;4.55;;;3.60;;
52668;SDS011;74205;52.786;6.892;2024-02-16T15:41:41;4.30;;;3.83;;
52668;SDS011;74205;52.786;6.892;2024-02-16T15:45:02;4.97;;;3.90;;
52668;SDS011;74205;52.786;6.892;2024-02-16T15:48:24;5.38;;;4.15;;
52668;SDS011;74205;52.786;6.892;2024-02-16T15:51:45;5.97;;;4.75;;
52668;SDS011;74205;52.786;6.892;2024-02-16T15:55:06;6.50;;;4.78;;
52668;SDS011;74205;52.786;6.892;2024-02-16T15:58:27;7.05;;;3.83;;
52668;SDS011;74205;52.786;6.892;2024-02-16T16:01:47;6.30;;;4.50;;
52668;SDS011;74205;52.786;6.892;2024-02-16T16:05:08;5.90;;;4.57;;
52668;SDS011;74205;52.786;6.892;2024-02-16T16:08:29;6.20;;;4.00;;
52668;SDS011;74205;52.786;6.892;2024-02-16T16:11:50;5.32;;;4.00;;
52668;SDS011;74205;52.786;6.892;2024-02-16T16:15:11;7.22;;;4.88;;
52668;SDS011;74205;52.786;6.892;2024-02-16T16:18:31;8.18;;;4.70;;
52668;SDS011;74205;52.786;6.892;2024-02-16T16:21:54;4.72;;;3.90;;
52668;SDS011;74205;52.786;6.892;2024-02-16T16:25:16;5.57;;;4.65;;
52668;SDS011;74205;52.786;6.892;2024-02-16T16:28:36;6.95;;;5.80;;
52668;SDS011;74205;52.786;6.892;2024-02-16T16:31:57;8.70;;;4.70;;
52668;SDS011;74205;52.786;6.892;2024-02-16T16:35:19;6.97;;;6.18;;
52668;SDS011;74205;52.786;6.892;2024-02-16T16:38:40;6.97;;;5.90;;
52668;SDS011;74205;52.786;6.892;2024-02-16T16:42:01;9.93;;;6.95;;
52668;SDS011;74205;52.786;6.892;2024-02-16T16:45:22;8.93;;;6.93;;
52668;SDS011;74205;52.786;6.892;2024-02-16T16:48:43;9.43;;;6.78;;
52668;SDS011;74205;52.786;6.892;2024-02-16T16:52:04;9.77;;;7.47;;
52668;SDS011;74205;52.786;6.892;2024-02-16T16:55:25;11.50;;;10.27;;
52668;SDS011;74205;52.786;6.892;2024-02-16T16:58:46;9.48;;;7.05;;
52668;SDS011;74205;52.786;6.892;2024-02-16T17:02:07;9.63;;;7.82;;
52668;SDS011;74205;52.786;6.892;2024-02-16T17:05:28;8.18;;;6.80;;
52668;SDS011;74205;52.786;6.892;2024-02-16T17:08:48;10.27;;;6.95;;
52668;SDS011;74205;52.786;6.892;2024-02-16T17:12:09;11.48;;;9.30;;
52668;SDS011;74205;52.786;6.892;2024-02-16T17:15:29;11.93;;;9.65;;
52668;SDS011;74205;52.786;6.892;2024-02-16T17:18:52;12.00;;;8.68;;
52668;SDS011;74205;52.786;6.892;2024-02-16T17:22:13;13.68;;;9.65;;
52668;SDS011;74205;52.786;6.892;2024-02-16T17:25:34;10.25;;;9.02;;
52668;SDS011;74205;52.786;6.892;2024-02-16T17:28:54;13.15;;;9.80;;
52668;SDS011;74205;52.786;6.892;2024-02-16T17:32:15;12.77;;;9.48;;
52668;SDS011;74205;52.786;6.892;2024-02-16T17:35:36;10.77;;;9.57;;
52668;SDS011;74205;52.786;6.892;2024-02-16T17:39:00;13.02;;;10.95;;
52668;SDS011;74205;52.786;6.892;2024-02-16T17:42:22;11.35;;;10.20;;
52668;SDS011;74205;52.786;6.892;2024-02-16T17:45:42;12.10;;;10.40;;
52668;SDS011;74205;52.786;6.892;2024-02-16T17:49:03;14.68;;;11.52;;
52668;SDS011;74205;52.786;6.892;2024-02-16T17:52:26;12.90;;;10.00;;
52668;SDS011;74205;52.786;6.892;2024-02-16T17:55:46;13.98;;;11.43;;
52668;SDS011;74205;52.786;6.892;2024-02-16T17:59:07;12.65;;;10.30;;
52668;SDS011;74205;52.786;6.892;2024-02-16T18:02:27;13.27;;;11.38;;
52668;SDS011;74205;52.786;6.892;2024-02-16T18:05:48;16.15;;;10.73;;
52668;SDS011;74205;52.786;6.892;2024-02-16T18:09:09;13.60;;;12.15;;
52668;SDS011;74205;52.786;6.892;2024-02-16T18:12:30;14.77;;;11.43;;
52668;SDS011;74205;52.786;6.892;2024-02-16T18:15:51;12.05;;;10.73;;
52668;SDS011;74205;52.786;6.892;2024-02-16T18:19:15;17.50;;;12.57;;
52668;SDS011;74205;52.786;6.892;2024-02-16T18:22:35;13.75;;;12.38;;
52668;SDS011;74205;52.786;6.892;2024-02-16T18:25:56;11.93;;;10.20;;
52668;SDS011;74205;52.786;6.892;2024-02-16T18:29:18;13.30;;;11.90;;
52668;SDS011;74205;52.786;6.892;2024-02-16T18:32:38;16.77;;;13.05;;
52668;SDS011;74205;52.786;6.892;2024-02-16T18:35:59;20.23;;;14.98;;
52668;SDS011;74205;52.786;6.892;2024-02-16T18:39:22;17.48;;;14.75;;
52668;SDS011;74205;52.786;6.892;2024-02-16T18:42:45;18.75;;;15.23;;
52668;SDS011;74205;52.786;6.892;2024-02-16T18:46:07;18.73;;;16.20;;
52668;SDS011;74205;52.786;6.892;2024-02-16T18:49:28;20.40;;;15.85;;
52668;SDS011;74205;52.786;6.892;2024-02-16T18:52:48;22.58;;;15.95;;
52668;SDS011;74205;52.786;6.892;2024-02-16T18:56:09;19.88;;;17.35;;
52668;SDS011;74205;52.786;6.892;2024-02-16T18:59:30;26.73;;;19.50;;
52668;SDS011;74205;52.786;6.892;2024-02-16T19:02:50;21.38;;;18.98;;
52668;SDS011;74205;52.786;6.892;2024-02-16T19:06:11;23.23;;;19.55;;
52668;SDS011;74205;52.786;6.892;2024-02-16T19:09:32;26.80;;;20.73;;
52668;SDS011;74205;52.786;6.892;2024-02-16T19:12:52;29.10;;;23.65;;
52668;SDS011;74205;52.786;6.892;2024-02-16T19:16:13;31.10;;;24.20;;
52668;SDS011;74205;52.786;6.892;2024-02-16T19:19:33;31.63;;;23.70;;
52668;SDS011;74205;52.786;6.892;2024-02-16T19:22:55;32.72;;;23.90;;
52668;SDS011;74205;52.786;6.892;2024-02-16T19:26:16;34.15;;;24.88;;
52668;SDS011;74205;52.786;6.892;2024-02-16T19:29:37;36.65;;;25.30;;
52668;SDS011;74205;52.786;6.892;2024-02-16T19:32:57;32.17;;;27.25;;
52668;SDS011;74205;52.786;6.892;2024-02-16T19:36:18;34.88;;;26.85;;
52668;SDS011;74205;52.786;6.892;2024-02-16T19:39:38;25.42;;;22.83;;
52668;SDS011;74205;52.786;6.892;2024-02-16T19:43:00;30.20;;;23.88;;
52668;SDS011;74205;52.786;6.892;2024-02-16T19:49:43;29.58;;;23.15;;
52668;SDS011;74205;52.786;6.892;2024-02-16T19:53:03;33.13;;;25.15;;
52668;SDS011;74205;52.786;6.892;2024-02-16T19:56:24;27.70;;;23.10;;
52668;SDS011;74205;52.786;6.892;2024-02-16T19:59:44;29.73;;;24.15;;
52668;SDS011;74205;52.786;6.892;2024-02-16T20:03:05;30.20;;;24.25;;
52668;SDS011;74205;52.786;6.892;2024-02-16T20:06:26;29.67;;;22.55;;
52668;SDS011;74205;52.786;6.892;2024-02-16T20:09:48;31.63;;;24.17;;